Aviation Digital Data Service (ADDS)

Output produced by METARs form (0013 UTC 18 April 2014)
found at http://aviationweather.gov/adds/metars/
 
KHKY 172331Z 1800/1824 08003KT P6SM FEW250 
     FM181000 04004KT P6SM BKN040 BKN120 
     FM182200 03007KT P6SM OVC040